ROMMA est une association bénévole à but non lucratif. Votre soutien est indispensable : ADHERER à ROMMA ou FAIRE un DON

Taninges - (74, Haute-Savoie)

Vallée du Giffre (635 m)   Longitude: 06° 35' 38" E   Latitude: 46° 06' 21" N Station romma n°98
 

Détail journalier du     <<     >>

Température Precipitation Humidité Pression Vent Dir Rafale Dir. rafale Ensol.
Heure (°C) (mm) (%) (hPa) (km/h) (km/h) (min)
01:00 7.8086101703O0
02:00 6.4090101703ONO0
03:00 5.4092101703ONO0
04:00 4.6094101702S0
05:00 3.80941017000
06:00 3.8095101703S0
07:00 3.6096101703S0
08:00 7.209610171S5S45
09:00 11.708010161SE5SE60
10:00 13.907110165OSO18SO60
11:00 15.6068101510OSO19OSO60
12:00 17.1064101511SO21OSO60
13:00 18.7061101512OSO24OSO60
14:00 20.1056101413SO24OSO60
15:00 21.0049101411OSO23OSO60
16:00 22.2044101410O26SO60
17:00 22.104110138O21O60
18:00 22.004410139O19O60
19:00 21.703910137O16ONO60
20:00 20.204410135O15ONO55
21:00 16.205810132ENE11ENE0
22:00 13.307310141ESE8NE0
23:00 10.9082101403SE0
minuit 9.8088101403SE0

Graphique du 23-05-2019

 

Serveur OMMA